Frederika, Iowa
Current Conditions -  °F | °C
As of 10:35 AM on Thursday 23 Oct 2014 (Local Time) from KCCY Reporting Station
Haze Haze  
Wind Chill: 45°   Ceiling: 400
Heat Index: 48°   Visibility: 1.5mi
Dew Point: 48°   Wind: 7mph
Humidity: 100%   Direction: 180°S
Pressure: 30.05"   Gusts: NA
Location:  42.88°N, 92.31°W
Report Text: KCCY 231535Z AUTO 18006KT 1 1/2SM BR OVC004 09/09 A3005 RMK AO2
Loading
Personal Weather Stations






























Interactive Weather Map New forecast layout! Learn more

10-Day Weather Forecast

Advertisements
Track Severe Weather on mobile